Time;durP1;ratioP1;P1;durP2;ratioP2;P2;SDS_P1;SDS_P2;PMS_P1;PMS_P2;Temp;Humidity;BMP_temperature;BMP_pressure;BME280_temperature;BME280_humidity;BME280_pressure;Samples;Min_cycle;Max_cycle;Signal;HPM_P1;HPM_P2
2023/05/08 00:02:00;;;;;;;0.60;0.60;;;;;;;13.44;71.96;101805.06;5010766;28;20038;-50
2023/05/08 00:04:25;;;;;;;0.52;0.52;;;;;;;13.55;71.38;101816.97;5011771;28;20034;-56
2023/05/08 00:06:51;;;;;;;0.50;0.50;;;;;;;13.42;72.07;101815.44;4992881;28;20053;-53
2023/05/08 00:09:18;;;;;;;0.40;0.40;;;;;;;13.43;72.41;101816.25;5005249;28;20702;-51
2023/05/08 00:11:44;;;;;;;0.50;0.50;;;;;;;13.41;72.15;101821.97;5006028;28;20117;-58
2023/05/08 00:14:09;;;;;;;0.40;0.40;;;;;;;13.44;71.85;101815.09;5012356;28;20531;-58
2023/05/08 00:16:36;;;;;;;0.65;0.60;;;;;;;13.33;72.30;101822.16;5012129;28;20029;-58
2023/05/08 00:19:01;;;;;;;0.65;0.50;;;;;;;13.06;72.54;101815.59;4989833;28;20045;-56
2023/05/08 00:21:27;;;;;;;0.68;0.47;;;;;;;13.13;72.68;101812.28;5010384;28;20026;-51
2023/05/08 00:23:52;;;;;;;0.95;0.70;;;;;;;13.22;71.70;101812.94;5012091;28;20037;-53
2023/05/08 00:26:18;;;;;;;0.55;0.52;;;;;;;13.25;71.83;101809.53;5011787;28;20044;-54
2023/05/08 00:28:43;;;;;;;0.73;0.63;;;;;;;13.32;70.88;101805.13;5001833;28;20382;-54
2023/05/08 00:31:09;;;;;;;0.57;0.50;;;;;;;13.23;71.21;101809.09;5012498;28;20185;-52
2023/05/08 00:33:34;;;;;;;1.23;0.55;;;;;;;13.39;69.85;101794.47;4994201;28;20083;-54
2023/05/08 00:36:04;;;;;;;0.65;0.60;;;;;;;13.08;70.64;101790.91;5000678;28;20378;-59
2023/05/08 00:38:31;;;;;;;1.27;0.60;;;;;;;12.95;71.58;101802.84;4983342;28;20026;-52
2023/05/08 00:40:57;;;;;;;0.50;0.50;;;;;;;12.98;72.02;101799.47;5003233;28;20056;-55
2023/05/08 00:43:25;;;;;;;0.70;0.70;;;;;;;13.14;70.52;101801.13;4990971;28;20056;-51
2023/05/08 00:45:51;;;;;;;0.63;0.63;;;;;;;13.12;71.20;101797.19;4985651;28;20041;-59
2023/05/08 00:48:17;;;;;;;1.00;0.90;;;;;;;13.10;70.54;101797.56;4990777;28;20105;-53
2023/05/08 00:50:46;;;;;;;1.13;0.60;;;;;;;13.13;70.44;101802.25;4983186;28;20085;-55
2023/05/08 00:53:12;;;;;;;1.45;1.13;;;;;;;12.90;70.55;101797.66;5006548;28;20034;-56
2023/05/08 00:55:37;;;;;;;0.77;0.77;;;;;;;12.65;70.83;101795.03;4993734;28;20025;-56
2023/05/08 00:58:03;;;;;;;1.50;0.90;;;;;;;12.70;70.66;101800.19;4998253;28;20611;-58
2023/05/08 01:00:31;;;;;;;1.00;0.50;;;;;;;12.75;70.50;101804.59;5002915;28;20108;-55
2023/05/08 01:02:59;;;;;;;0.75;0.45;;;;;;;12.80;70.68;101803.53;4996098;28;20040;-56
2023/05/08 01:05:26;;;;;;;1.60;0.95;;;;;;;12.88;69.64;101797.22;5005543;28;20049;-59
2023/05/08 01:07:51;;;;;;;1.52;0.85;;;;;;;12.98;69.46;101791.34;4993032;28;20156;-56
2023/05/08 01:10:17;;;;;;;0.57;0.57;;;;;;;12.93;69.27;101789.66;4984129;28;20455;-56
2023/05/08 01:12:58;;;;;;;0.52;0.52;;;;;;;12.89;69.84;101779.88;5010820;28;20026;-59
2023/05/08 01:15:37;;;;;;;0.50;0.45;;;;;;;12.64;69.86;101781.84;5003422;28;20060;-56
2023/05/08 01:18:30;;;;;;;1.13;0.73;;;;;;;12.61;70.65;101783.31;4992557;28;20026;-58
2023/05/08 01:21:04;;;;;;;0.47;0.43;;;;;;;12.50;71.05;101782.19;5008239;28;20116;-59
2023/05/08 01:23:32;;;;;;;0.77;0.60;;;;;;;12.50;71.41;101787.59;5009432;28;20065;-59
2023/05/08 01:26:07;;;;;;;0.80;0.60;;;;;;;12.58;71.05;101788.63;5002777;28;20030;-60
2023/05/08 01:29:21;;;;;;;0.77;0.70;;;;;;;12.45;70.89;101795.94;4985258;28;20041;-56
2023/05/08 01:32:05;;;;;;;2.13;1.00;;;;;;;12.37;71.75;101804.16;4974776;28;20030;-58
2023/05/08 01:34:32;;;;;;;0.60;0.60;;;;;;;12.36;71.31;101800.69;4990568;28;20045;-57
2023/05/08 01:37:10;;;;;;;0.60;0.60;;;;;;;12.46;70.99;101802.13;4987726;28;20111;-58
2023/05/08 01:39:45;;;;;;;1.00;0.80;;;;;;;12.41;70.86;101808.53;4986380;28;20639;-58
2023/05/08 01:42:25;;;;;;;0.57;0.52;;;;;;;12.32;71.72;101802.47;4997611;28;20509;-59
2023/05/08 01:45:01;;;;;;;0.73;0.50;;;;;;;12.18;71.77;101810.13;5007172;28;20049;-56
2023/05/08 01:47:31;;;;;;;1.75;1.33;;;;;;;12.06;72.30;101804.69;5003998;28;20107;-56
2023/05/08 01:50:25;;;;;;;1.30;0.68;;;;;;;12.17;72.33;101799.66;4993449;28;20484;-54
2023/05/08 01:53:04;;;;;;;0.47;0.47;;;;;;;12.37;71.94;101802.25;4993862;28;20083;-56
2023/05/08 01:55:34;;;;;;;0.75;0.75;;;;;;;12.42;71.14;101802.03;4973464;28;20511;-59
2023/05/08 01:58:06;;;;;;;0.52;0.50;;;;;;;12.09;72.37;101793.25;5009978;28;20026;-58
2023/05/08 02:00:32;;;;;;;0.68;0.60;;;;;;;12.12;72.20;101797.16;4979355;28;20057;-58
2023/05/08 02:02:59;;;;;;;2.63;0.60;;;;;;;12.09;72.17;101795.16;4983400;28;20404;-58
2023/05/08 02:05:26;;;;;;;3.20;1.08;;;;;;;12.18;71.75;101801.22;4989687;28;20079;-56
2023/05/08 02:07:54;;;;;;;2.25;0.90;;;;;;;12.28;71.68;101806.19;4999506;28;20065;-56
2023/05/08 02:10:23;;;;;;;1.98;0.98;;;;;;;12.32;71.51;101802.47;4988765;28;20022;-59
2023/05/08 02:12:49;;;;;;;1.33;0.88;;;;;;;12.02;72.82;101797.63;4969730;28;20041;-59
2023/05/08 02:15:16;;;;;;;1.23;0.70;;;;;;;12.09;71.89;101792.44;5001822;28;20033;-58
2023/05/08 02:17:45;;;;;;;1.10;0.88;;;;;;;11.99;71.99;101799.06;4986494;28;20021;-58
2023/05/08 02:20:13;;;;;;;0.93;0.85;;;;;;;11.79;72.50;101806.13;5003272;28;20037;-59
2023/05/08 02:22:44;;;;;;;1.50;0.90;;;;;;;11.68;73.84;101798.78;5005009;28;20042;-56
2023/05/08 02:25:15;;;;;;;0.95;0.80;;;;;;;11.91;73.11;101802.66;5009456;28;20038;-60
2023/05/08 02:27:44;;;;;;;1.92;0.85;;;;;;;11.79;73.70;101799.94;4986312;28;20045;-57
2023/05/08 02:30:14;;;;;;;0.55;0.55;;;;;;;11.93;72.54;101808.50;5004929;28;20049;-57
2023/05/08 02:32:42;;;;;;;1.10;0.80;;;;;;;11.68;73.79;101804.97;4996300;28;20774;-57
2023/05/08 02:35:11;;;;;;;1.10;0.85;;;;;;;11.53;74.50;101799.41;5009183;28;20049;-60
2023/05/08 02:37:39;;;;;;;1.88;1.35;;;;;;;11.43;74.64;101802.50;5006714;28;20034;-59
2023/05/08 02:40:07;;;;;;;1.17;1.02;;;;;;;11.31;75.50;101803.25;4991147;28;20409;-54
2023/05/08 02:42:32;;;;;;;0.55;0.55;;;;;;;11.10;76.45;101801.69;5001295;28;20405;-59
2023/05/08 02:44:58;;;;;;;1.33;1.05;;;;;;;11.24;76.58;101797.59;5008213;28;20041;-57
2023/05/08 02:47:37;;;;;;;1.08;0.80;;;;;;;11.49;75.79;101796.56;4987658;28;20039;-58
2023/05/08 02:50:12;;;;;;;1.08;0.80;;;;;;;11.65;74.81;101796.75;5005265;28;20030;-60
2023/05/08 02:52:46;;;;;;;0.50;0.50;;;;;;;11.70;74.55;101791.94;4988109;28;20037;-59
2023/05/08 02:55:35;;;;;;;0.52;0.52;;;;;;;11.66;75.11;101792.94;4980539;28;20065;-58
2023/05/08 02:58:03;;;;;;;1.02;0.90;;;;;;;11.73;74.26;101790.47;5008481;28;20057;-59
2023/05/08 03:00:35;;;;;;;1.58;0.93;;;;;;;11.75;74.31;101796.31;4964489;28;20038;-58
2023/05/08 03:03:10;;;;;;;0.80;0.80;;;;;;;11.58;74.82;101791.06;5002297;28;20669;-59
2023/05/08 03:05:38;;;;;;;0.77;0.77;;;;;;;11.68;73.82;101785.28;4991562;28;20041;-60
2023/05/08 03:08:14;;;;;;;1.73;0.93;;;;;;;11.66;74.30;101787.53;5007740;28;20029;-59
2023/05/08 03:10:43;;;;;;;1.45;0.88;;;;;;;11.50;74.44;101786.56;4985412;28;20042;-59
2023/05/08 03:13:31;;;;;;;0.70;0.70;;;;;;;11.61;74.63;101772.31;4991057;28;20042;-60
2023/05/08 03:16:00;;;;;;;1.15;0.85;;;;;;;11.57;74.49;101784.13;4949342;29;20042;-57
2023/05/08 03:18:33;;;;;;;1.05;0.73;;;;;;;11.59;74.40;101773.78;4931924;29;20146;-60
2023/05/08 03:21:00;;;;;;;1.67;1.20;;;;;;;11.52;74.60;101776.22;4920927;29;20050;-60
2023/05/08 03:23:28;;;;;;;0.73;0.70;;;;;;;11.62;74.42;101783.91;4942310;29;20087;-58
2023/05/08 03:25:56;;;;;;;0.82;0.57;;;;;;;11.47;74.66;101776.44;4922238;29;20050;-57
2023/05/08 03:28:23;;;;;;;0.75;0.75;;;;;;;11.25;75.59;101768.72;4946659;29;20039;-59
2023/05/08 03:30:50;;;;;;;0.95;0.75;;;;;;;11.33;75.26;101775.94;4939929;29;20090;-60
2023/05/08 03:33:16;;;;;;;0.80;0.80;;;;;;;11.25;76.01;101763.31;4941990;29;20035;-59
2023/05/08 03:35:44;;;;;;;1.27;0.95;;;;;;;11.38;75.37;101773.81;4948431;28;20553;-56
2023/05/08 03:38:10;;;;;;;2.75;1.10;;;;;;;11.38;74.89;101775.75;4947750;29;20418;-58
2023/05/08 03:40:37;;;;;;;1.20;1.00;;;;;;;11.35;75.41;101774.50;4931037;29;20054;-58
2023/05/08 03:43:07;;;;;;;1.08;0.98;;;;;;;11.25;75.63;101776.78;4949404;28;20024;-58
2023/05/08 03:45:56;;;;;;;1.33;1.10;;;;;;;10.78;77.19;101784.34;4951790;29;20518;-59
2023/05/08 03:48:22;;;;;;;1.55;1.10;;;;;;;11.02;77.30;101778.28;4877337;29;20400;-55
2023/05/08 03:50:49;;;;;;;1.98;0.90;;;;;;;10.88;76.87;101773.13;4861993;29;20060;-59
2023/05/08 03:53:15;;;;;;;1.30;0.90;;;;;;;11.05;77.14;101778.41;4899797;29;20068;-58
2023/05/08 03:55:41;;;;;;;1.52;1.00;;;;;;;11.17;76.74;101780.38;4898788;29;20090;-58
2023/05/08 03:58:23;;;;;;;1.33;1.05;;;;;;;11.20;76.01;101775.13;4898917;29;20040;-58
2023/05/08 04:01:21;;;;;;;0.75;0.70;;;;;;;11.14;76.14;101773.75;4890175;29;20032;-57
2023/05/08 04:04:16;;;;;;;0.82;0.80;;;;;;;11.27;75.61;101775.34;4908175;29;20062;-58
2023/05/08 04:06:49;;;;;;;0.80;0.80;;;;;;;10.88;76.67;101781.22;4890738;29;20616;-58
2023/05/08 04:09:30;;;;;;;1.55;0.73;;;;;;;10.77;77.76;101780.03;4911290;29;20039;-58
2023/05/08 04:12:18;;;;;;;0.75;0.75;;;;;;;10.97;76.93;101791.97;4894630;29;20080;-59
2023/05/08 04:14:49;;;;;;;1.83;0.90;;;;;;;11.08;76.72;101790.44;4914500;29;20464;-58
2023/05/08 04:17:21;;;;;;;;;;;;;;;11.19;76.20;101788.94;4902875;29;20059;-55
2023/05/08 04:19:54;;;;;;;0.52;0.52;;;;;;;11.23;75.86;101787.13;4912223;29;19923;-55
2023/05/08 04:22:24;;;;;;;2.47;1.15;;;;;;;11.25;76.23;101787.59;4903556;29;20080;-58
2023/05/08 04:24:51;;;;;;;1.00;0.70;;;;;;;11.36;75.65;101786.06;4935984;28;20077;-59
2023/05/08 04:27:17;;;;;;;1.08;0.68;;;;;;;11.25;75.55;101782.97;5002098;28;20037;-58
2023/05/08 04:29:43;;;;;;;1.17;0.88;;;;;;;11.06;76.30;101785.38;5012908;28;20040;-57
2023/05/08 04:32:09;;;;;;;1.40;0.93;;;;;;;11.09;76.22;101786.63;4996920;28;20033;-57
2023/05/08 04:34:35;;;;;;;1.42;0.85;;;;;;;11.27;75.58;101794.22;5007156;28;20038;-57
2023/05/08 04:37:01;;;;;;;1.20;0.98;;;;;;;11.34;75.33;101786.38;4993515;28;20041;-59
2023/05/08 04:39:27;;;;;;;2.05;0.68;;;;;;;11.31;75.09;101778.16;4976199;28;20030;-57
2023/05/08 04:41:54;;;;;;;0.52;0.50;;;;;;;11.28;75.52;101790.44;5001528;28;20046;-56
2023/05/08 04:44:20;;;;;;;0.88;0.82;;;;;;;11.41;74.64;101775.06;4984535;28;20077;-55
2023/05/08 04:46:45;;;;;;;0.70;0.70;;;;;;;11.25;75.14;101782.97;5011343;28;20484;-56
2023/05/08 04:49:11;;;;;;;1.25;1.02;;;;;;;11.03;76.55;101785.25;4988003;28;20048;-57
2023/05/08 04:51:36;;;;;;;2.35;1.00;;;;;;;11.09;76.29;101787.41;4987732;28;20061;-53
2023/05/08 04:54:02;;;;;;;1.90;1.25;;;;;;;11.06;76.29;101784.56;4992388;28;20088;-55
2023/05/08 04:56:28;;;;;;;1.58;0.95;;;;;;;11.14;75.96;101783.72;5000944;28;20630;-59
2023/05/08 04:58:54;;;;;;;1.55;0.80;;;;;;;11.25;75.95;101782.19;4987321;28;20038;-58
2023/05/08 05:01:20;;;;;;;2.88;1.52;;;;;;;11.31;75.23;101786.25;4984069;28;20057;-59
2023/05/08 05:03:45;;;;;;;1.08;0.98;;;;;;;11.10;75.89;101789.00;4986719;28;20064;-58
2023/05/08 05:06:11;;;;;;;0.93;0.68;;;;;;;11.23;76.23;101800.59;4984130;28;20568;-59
2023/05/08 05:08:37;;;;;;;1.63;0.90;;;;;;;11.31;76.04;101800.53;4999415;28;20496;-58
2023/05/08 05:11:03;;;;;;;1.17;1.08;;;;;;;11.28;75.88;101792.34;4976602;28;20038;-58
2023/05/08 05:13:28;;;;;;;2.42;1.00;;;;;;;11.34;76.58;101796.41;4992662;28;20030;-60
2023/05/08 05:15:54;;;;;;;2.17;1.10;;;;;;;11.57;76.34;101789.50;4987209;28;20656;-58
2023/05/08 05:18:41;;;;;;;1.20;0.95;;;;;;;11.68;75.75;101790.69;4987266;28;20030;-56
2023/05/08 05:21:07;;;;;;;1.20;1.05;;;;;;;11.80;74.81;101785.31;4927150;29;20052;-57
2023/05/08 05:23:33;;;;;;;2.47;1.23;;;;;;;12.14;73.84;101800.31;4949963;28;20110;-57
2023/05/08 05:25:59;;;;;;;1.33;1.13;;;;;;;12.14;71.90;101803.00;4929312;28;20047;-56
2023/05/08 05:28:25;;;;;;;1.88;1.55;;;;;;;12.32;71.83;101804.38;4947964;28;20036;-58
2023/05/08 05:30:51;;;;;;;4.03;1.00;;;;;;;12.67;70.89;101822.50;4947057;28;20031;-58
2023/05/08 05:33:16;;;;;;;1.20;0.80;;;;;;;12.93;68.54;101810.53;4932184;28;20039;-59
2023/05/08 05:35:43;;;;;;;1.08;0.98;;;;;;;12.97;69.24;101811.41;4949405;28;20059;-58
2023/05/08 05:38:09;;;;;;;1.25;1.15;;;;;;;13.35;68.50;101800.94;4933661;28;20086;-57
2023/05/08 05:40:36;;;;;;;0.82;0.82;;;;;;;13.46;66.58;101802.00;4943393;28;20434;-54
2023/05/08 05:43:05;;;;;;;1.88;1.23;;;;;;;13.54;66.01;101803.78;4912019;28;20038;-57
2023/05/08 05:45:31;;;;;;;2.35;1.23;;;;;;;13.90;64.85;101814.41;4923809;28;20396;-54
2023/05/08 05:47:56;;;;;;;2.25;1.27;;;;;;;14.10;63.76;101820.69;4916868;29;20459;-53
2023/05/08 05:50:25;;;;;;;0.90;0.75;;;;;;;14.20;63.65;101823.69;4931558;29;20041;-57
2023/05/08 05:52:51;;;;;;;1.20;0.98;;;;;;;14.36;62.97;101824.47;4914158;29;20124;-53
2023/05/08 05:55:16;;;;;;;1.73;0.98;;;;;;;14.33;62.04;101827.91;4924028;29;20050;-59
2023/05/08 05:57:42;;;;;;;1.52;0.90;;;;;;;13.88;63.06;101816.66;4969251;28;20048;-58
2023/05/08 06:00:08;;;;;;;1.20;0.65;;;;;;;13.92;63.82;101819.47;4987971;28;20160;-58
2023/05/08 06:02:42;;;;;;;0.98;0.80;;;;;;;14.19;62.19;101808.56;5009503;28;20034;-57
2023/05/08 06:05:10;;;;;;;0.98;0.60;;;;;;;14.11;63.07;101806.81;5003817;28;20036;-54
2023/05/08 06:07:36;;;;;;;3.88;1.40;;;;;;;14.24;61.92;101815.66;5000080;28;20393;-56
2023/05/08 06:10:02;;;;;;;1.67;0.98;;;;;;;14.64;61.98;101818.16;4991858;28;20637;-57
2023/05/08 06:12:29;;;;;;;0.73;0.70;;;;;;;14.81;60.76;101829.38;5011468;28;20096;-56
2023/05/08 06:15:15;;;;;;;0.60;0.60;;;;;;;14.85;60.03;101829.47;4993020;28;20084;-57
2023/05/08 06:17:43;;;;;;;1.27;1.00;;;;;;;15.05;59.75;101828.38;4939022;28;20192;-57
2023/05/08 06:20:09;;;;;;;1.98;0.80;;;;;;;14.63;60.27;101822.00;4950180;28;20054;-55
2023/05/08 06:22:36;;;;;;;0.70;0.70;;;;;;;14.98;59.10;101825.50;4946546;29;20041;-58
2023/05/08 06:25:02;;;;;;;0.73;0.70;;;;;;;14.27;61.22;101821.16;4943095;28;20035;-57
2023/05/08 06:27:28;;;;;;;1.05;0.88;;;;;;;14.82;61.19;101822.06;4948820;29;20043;-56
2023/05/08 06:29:53;;;;;;;1.40;0.60;;;;;;;15.22;59.90;101823.31;4950182;28;20046;-56
2023/05/08 06:32:19;;;;;;;0.80;0.70;;;;;;;15.29;58.11;101817.25;4948243;28;20046;-57
2023/05/08 06:34:45;;;;;;;2.63;1.40;;;;;;;14.66;59.98;101822.09;4949402;29;20075;-58
2023/05/08 06:37:10;;;;;;;0.55;0.40;;;;;;;14.46;61.47;101812.31;4948556;29;20085;-58
2023/05/08 06:39:36;;;;;;;1.50;0.88;;;;;;;15.06;61.25;101810.97;4933699;29;20035;-58
2023/05/08 06:42:03;;;;;;;3.75;0.93;;;;;;;15.60;58.89;101814.38;4945297;28;20549;-58
2023/05/08 06:44:29;;;;;;;0.60;0.60;;;;;;;15.41;58.82;101814.34;4944431;29;20032;-59
2023/05/08 06:46:55;;;;;;;1.92;1.25;;;;;;;15.27;57.61;101809.44;4945422;29;20043;-57
2023/05/08 06:49:21;;;;;;;2.92;0.88;;;;;;;15.36;57.93;101814.66;4948318;29;20082;-57
2023/05/08 06:51:47;;;;;;;0.60;0.50;;;;;;;15.21;59.48;101818.25;4949779;29;20034;-59
2023/05/08 06:54:12;;;;;;;1.00;0.90;;;;;;;15.70;59.41;101810.31;4967006;28;20553;-58
2023/05/08 06:56:38;;;;;;;8.18;0.90;;;;;;;15.83;58.94;101820.59;5008838;28;20101;-57
2023/05/08 06:59:03;;;;;;;0.90;0.90;;;;;;;16.20;57.90;101818.16;5001459;28;20121;-57
2023/05/08 07:01:29;;;;;;;0.80;0.65;;;;;;;16.53;56.92;101821.03;5005350;28;20036;-57
2023/05/08 07:03:54;;;;;;;1.10;0.98;;;;;;;16.50;55.28;101824.47;4997291;28;20022;-57
2023/05/08 07:06:20;;;;;;;3.78;0.60;;;;;;;16.36;56.09;101818.78;4987520;28;20046;-57
2023/05/08 07:08:45;;;;;;;1.88;1.10;;;;;;;16.26;56.12;101812.03;5008367;28;20034;-57
2023/05/08 07:11:11;;;;;;;0.60;0.60;;;;;;;16.71;56.06;101807.69;5004185;28;20025;-57
2023/05/08 07:13:36;;;;;;;1.40;0.88;;;;;;;16.51;55.06;101807.00;5010009;28;20026;-56
2023/05/08 07:16:04;;;;;;;1.52;0.80;;;;;;;16.37;55.12;101805.97;5002611;28;20037;-56
2023/05/08 07:18:29;;;;;;;1.40;1.00;;;;;;;16.57;56.75;101812.94;5002060;28;20050;-55
2023/05/08 07:20:55;;;;;;;1.88;1.02;;;;;;;16.78;55.76;101807.78;5000212;28;20021;-56
2023/05/08 07:23:20;;;;;;;0.85;0.55;;;;;;;17.07;55.66;101804.28;5007568;28;20037;-58
2023/05/08 07:25:49;;;;;;;1.02;0.65;;;;;;;17.23;55.32;101818.47;4988364;28;20053;-58
2023/05/08 07:28:14;;;;;;;0.82;0.75;;;;;;;17.24;53.63;101822.78;4989719;28;20030;-59
2023/05/08 07:30:39;;;;;;;1.30;0.82;;;;;;;17.40;53.49;101828.03;5008772;28;20378;-60
2023/05/08 07:33:05;;;;;;;1.15;0.55;;;;;;;17.55;53.22;101821.59;4990511;28;20044;-58
2023/05/08 07:35:31;;;;;;;0.75;0.70;;;;;;;17.39;53.85;101824.50;5005324;28;20044;-58
2023/05/08 07:37:56;;;;;;;1.00;0.75;;;;;;;17.69;53.96;101817.06;4990138;28;20026;-58
2023/05/08 07:40:21;;;;;;;1.88;1.05;;;;;;;17.45;53.92;101803.94;4990864;28;20440;-59
2023/05/08 07:42:47;;;;;;;1.25;0.90;;;;;;;17.38;54.26;101814.00;5004380;28;20108;-57
2023/05/08 07:45:12;;;;;;;1.42;0.82;;;;;;;17.19;54.82;101809.47;4991981;28;20030;-58
2023/05/08 07:47:47;;;;;;;1.15;0.85;;;;;;;17.66;54.12;101809.66;5009376;28;20033;-57
2023/05/08 07:50:12;;;;;;;1.10;1.00;;;;;;;17.29;54.12;101818.91;5010456;28;20473;-57
2023/05/08 07:52:38;;;;;;;2.10;1.55;;;;;;;17.26;54.35;101803.34;5000672;28;20061;-59
2023/05/08 07:55:04;;;;;;;1.55;1.02;;;;;;;17.69;53.93;101816.31;5009001;28;20057;-59
2023/05/08 07:57:38;;;;;;;2.10;0.82;;;;;;;17.79;53.63;101812.88;5009055;28;20101;-59
2023/05/08 08:00:09;;;;;;;1.92;0.85;;;;;;;17.74;54.52;101811.28;5001871;28;20034;-60
2023/05/08 08:02:43;;;;;;;1.30;0.90;;;;;;;17.33;54.09;101797.97;5003287;28;20088;-59
2023/05/08 08:05:08;;;;;;;1.70;0.98;;;;;;;17.72;54.27;101801.91;5007020;28;20089;-60
2023/05/08 08:07:34;;;;;;;1.15;0.70;;;;;;;18.18;53.49;101796.84;5006428;28;20116;-59
2023/05/08 08:10:01;;;;;;;1.27;0.90;;;;;;;18.04;53.37;101813.88;5003277;28;20113;-55
2023/05/08 08:12:27;;;;;;;1.52;0.98;;;;;;;18.28;53.92;101799.69;5008571;28;20034;-58
2023/05/08 08:14:53;;;;;;;1.27;0.90;;;;;;;18.53;53.36;101810.78;4988456;28;20667;-59
2023/05/08 08:17:18;;;;;;;1.63;0.90;;;;;;;18.37;51.54;101802.09;5008589;28;20041;-60
2023/05/08 08:19:44;;;;;;;2.28;0.93;;;;;;;17.73;52.95;101801.53;5011790;28;20101;-58
2023/05/08 08:22:09;;;;;;;1.80;1.00;;;;;;;17.80;53.49;101804.34;5012839;28;20088;-59
2023/05/08 08:24:35;;;;;;;1.27;0.98;;;;;;;17.34;54.06;101815.88;5008113;28;20488;-58
2023/05/08 08:27:01;;;;;;;1.10;0.80;;;;;;;17.79;54.53;101815.59;5011494;28;20044;-58
2023/05/08 08:29:26;;;;;;;1.50;0.77;;;;;;;18.28;53.84;101801.63;5013254;28;20540;-59
2023/05/08 08:31:52;;;;;;;0.98;0.77;;;;;;;18.49;52.44;101807.25;5011080;28;20038;-59
2023/05/08 08:34:17;;;;;;;2.00;0.57;;;;;;;19.03;51.74;101807.16;5012680;28;20030;-57
2023/05/08 08:36:43;;;;;;;1.55;1.00;;;;;;;18.60;51.53;101808.13;5011695;28;20068;-58
2023/05/08 08:39:08;;;;;;;1.88;1.00;;;;;;;18.79;51.70;101802.38;5012063;28;20034;-56
2023/05/08 08:41:34;;;;;;;1.45;0.88;;;;;;;18.74;51.08;101803.53;5011014;28;20030;-59
2023/05/08 08:44:01;;;;;;;1.45;1.00;;;;;;;18.51;51.38;101802.19;5012590;28;20493;-56
2023/05/08 08:46:27;;;;;;;0.90;0.65;;;;;;;18.93;51.95;101802.44;5009576;28;20104;-55
2023/05/08 08:48:54;;;;;;;0.90;0.55;;;;;;;19.27;51.74;101798.28;5012547;28;20034;-58
2023/05/08 08:51:30;;;;;;;1.02;0.47;;;;;;;19.67;51.95;101797.25;5006687;28;20038;-59
2023/05/08 08:54:12;;;;;;;1.27;0.77;;;;;;;19.70;50.74;101797.25;5008043;28;20045;-58
2023/05/08 08:56:44;;;;;;;1.83;1.05;;;;;;;19.75;49.41;101793.34;5006913;28;20053;-59
2023/05/08 08:59:12;;;;;;;2.42;1.10;;;;;;;19.99;49.33;101797.28;5012434;28;20052;-56
2023/05/08 09:01:40;;;;;;;1.48;0.80;;;;;;;20.26;48.90;101801.22;5008645;28;20037;-58
2023/05/08 09:04:06;;;;;;;1.00;0.82;;;;;;;19.82;49.18;101789.84;5008807;28;20030;-57
2023/05/08 09:06:36;;;;;;;2.25;1.15;;;;;;;20.01;48.73;101793.00;5011369;28;20606;-59
2023/05/08 09:09:02;;;;;;;1.60;0.98;;;;;;;20.42;48.87;101793.38;5005990;28;20100;-58
2023/05/08 09:11:28;;;;;;;1.25;0.93;;;;;;;20.57;48.02;101786.69;5008002;28;20451;-59
2023/05/08 09:13:55;;;;;;;1.15;0.65;;;;;;;20.47;48.81;101777.34;5011061;28;20030;-57
2023/05/08 09:16:21;;;;;;;1.88;0.93;;;;;;;20.49;47.78;101793.38;5004550;28;20044;-55
2023/05/08 09:18:47;;;;;;;1.65;1.13;;;;;;;20.36;47.64;101775.78;5012338;28;20087;-60
2023/05/08 09:21:13;;;;;;;1.10;0.60;;;;;;;19.89;49.51;101776.97;5011746;28;20112;-57
2023/05/08 09:23:56;;;;;;;1.55;0.90;;;;;;;20.27;50.03;101786.34;4994490;28;20059;-59
2023/05/08 09:26:34;;;;;;;4.00;1.00;;;;;;;20.51;48.84;101786.31;5005334;28;20481;-60
2023/05/08 09:29:29;;;;;;;0.98;0.70;;;;;;;21.07;48.38;101782.66;5009464;28;20070;-59
2023/05/08 09:31:55;;;;;;;2.20;1.35;;;;;;;20.65;47.50;101786.28;4984922;28;20056;-56
2023/05/08 09:34:26;;;;;;;1.20;0.98;;;;;;;21.00;47.46;101768.94;5009413;28;20108;-59
2023/05/08 09:37:10;;;;;;;1.52;1.00;;;;;;;21.56;46.59;101785.09;5010037;28;20034;-55
2023/05/08 09:39:38;;;;;;;1.13;0.70;;;;;;;21.72;46.29;101786.59;4997439;28;20069;-58
2023/05/08 09:42:04;;;;;;;1.55;1.02;;;;;;;22.06;45.70;101787.50;4972553;28;20026;-59
2023/05/08 09:44:48;;;;;;;1.60;1.02;;;;;;;21.99;45.61;101790.34;5008658;28;20092;-58
2023/05/08 09:47:15;;;;;;;1.50;1.15;;;;;;;22.29;44.72;101782.22;4974069;28;20034;-57
2023/05/08 09:50:04;;;;;;;1.23;0.80;;;;;;;21.63;44.61;101789.78;5006412;28;20022;-58
2023/05/08 09:52:31;;;;;;;0.77;0.73;;;;;;;21.88;46.21;101773.16;5010711;28;20117;-57
2023/05/08 09:54:58;;;;;;;0.95;0.80;;;;;;;22.20;44.95;101773.69;5009822;28;20096;-58
2023/05/08 09:57:24;;;;;;;1.00;0.75;;;;;;;22.43;44.59;101779.34;5003875;28;20045;-56
2023/05/08 09:59:50;;;;;;;1.35;0.75;;;;;;;22.10;45.92;101767.09;5009622;28;20038;-57
2023/05/08 10:02:16;;;;;;;1.35;0.90;;;;;;;22.70;44.92;101773.97;5005126;28;20047;-58
2023/05/08 10:04:41;;;;;;;1.45;1.13;;;;;;;22.88;43.76;101764.31;5006432;28;20046;-54
2023/05/08 10:07:07;;;;;;;1.65;0.80;;;;;;;23.18;43.11;101775.31;5008634;28;20034;-58
2023/05/08 10:09:32;;;;;;;1.17;0.73;;;;;;;23.05;43.36;101763.31;5007718;28;20025;-59
2023/05/08 10:11:58;;;;;;;1.10;0.82;;;;;;;23.19;42.89;101765.09;4992675;28;20544;-57
2023/05/08 10:14:24;;;;;;;0.80;0.55;;;;;;;22.93;42.87;101758.38;4989449;28;20104;-58
2023/05/08 10:16:52;;;;;;;1.50;0.85;;;;;;;22.83;43.28;101778.50;4998833;28;20045;-55
2023/05/08 10:19:22;;;;;;;0.90;0.57;;;;;;;22.98;43.01;101773.63;4998610;28;20073;-55
2023/05/08 10:21:50;;;;;;;0.70;0.70;;;;;;;22.35;44.14;101764.09;5008903;28;20026;-57
2023/05/08 10:24:20;;;;;;;1.25;0.65;;;;;;;22.21;44.35;101759.53;5010501;28;20034;-57
2023/05/08 10:27:18;;;;;;;1.50;0.90;;;;;;;22.21;43.62;101767.00;5008591;28;20065;-58
2023/05/08 10:29:52;;;;;;;0.90;0.70;;;;;;;22.17;43.55;101760.75;4979861;28;20061;-55
2023/05/08 10:32:22;;;;;;;2.67;1.00;;;;;;;21.81;43.02;101762.25;5004760;28;20061;-53
2023/05/08 10:34:52;;;;;;;0.68;0.60;;;;;;;21.26;44.81;101764.94;4985944;28;20030;-57
2023/05/08 10:37:19;;;;;;;0.97;0.77;;;;;;;21.65;44.06;101768.22;5008147;28;20025;-52
2023/05/08 10:39:46;;;;;;;1.40;0.95;;;;;;;21.32;43.46;101746.88;5009935;28;20101;-57
2023/05/08 10:42:15;;;;;;;0.90;0.60;;;;;;;20.84;44.71;101760.41;5004613;28;20088;-55
2023/05/08 10:44:41;;;;;;;0.57;0.55;;;;;;;21.17;44.79;101757.16;5007383;28;20052;-58
2023/05/08 10:47:26;;;;;;;2.25;0.68;;;;;;;20.99;44.25;101748.22;5001549;28;20037;-57
2023/05/08 10:50:01;;;;;;;0.52;0.52;;;;;;;20.51;45.00;101745.25;5000058;28;20042;-58
2023/05/08 10:52:41;;;;;;;0.68;0.43;;;;;;;20.87;44.53;101734.94;5005845;28;20033;-56
2023/05/08 10:55:22;;;;;;;0.93;0.65;;;;;;;20.89;44.38;101729.84;5005076;28;20042;-56
2023/05/08 10:58:02;;;;;;;0.55;0.55;;;;;;;21.09;43.63;101730.97;4973370;28;20543;-56
2023/05/08 11:00:52;;;;;;;0.88;0.50;;;;;;;20.88;43.08;101739.25;5009006;28;20037;-56
2023/05/08 11:03:19;;;;;;;0.40;0.30;;;;;;;20.60;43.36;101725.66;5008263;28;20116;-56
2023/05/08 11:05:46;;;;;;;0.95;0.50;;;;;;;20.94;44.49;101726.72;5008388;28;20042;-58
2023/05/08 11:08:31;;;;;;;0.80;0.52;;;;;;;21.63;43.86;101723.94;5009713;28;20040;-58
2023/05/08 11:11:05;;;;;;;1.52;0.63;;;;;;;22.02;42.18;101729.94;5010352;28;20042;-57
2023/05/08 11:13:39;;;;;;;1.25;0.47;;;;;;;22.07;40.98;101723.19;5006371;28;20053;-58
2023/05/08 11:16:06;;;;;;;0.30;0.30;;;;;;;22.57;41.86;101724.25;5007399;28;20378;-53
2023/05/08 11:18:32;;;;;;;0.60;0.43;;;;;;;22.97;40.67;101730.84;5004810;28;20040;-57
2023/05/08 11:21:05;;;;;;;0.40;0.30;;;;;;;22.97;39.76;101719.84;5001110;28;20034;-56
2023/05/08 11:23:35;;;;;;;0.28;0.28;;;;;;;23.10;38.86;101720.84;5007361;28;20028;-56
2023/05/08 11:26:10;;;;;;;0.30;0.30;;;;;;;23.47;38.95;101712.47;5007568;28;20041;-57
2023/05/08 11:28:52;;;;;;;0.68;0.30;;;;;;;23.73;37.93;101716.38;5006314;28;20042;-58
2023/05/08 11:31:17;;;;;;;0.38;0.30;;;;;;;23.87;37.95;101714.16;4999534;28;20038;-57
2023/05/08 11:33:43;;;;;;;0.70;0.45;;;;;;;24.09;37.99;101720.88;5004890;28;20041;-58
2023/05/08 11:36:12;;;;;;;0.50;0.50;;;;;;;24.26;37.35;101724.50;5006836;28;20412;-57